createdAt,value
2022-08-03T00:01:02.551Z,92.80
2022-08-03T00:02:05.141Z,93.06
2022-08-03T00:03:09.911Z,92.73
2022-08-03T00:04:12.688Z,92.73
2022-08-03T00:05:15.278Z,92.84
2022-08-03T00:06:19.784Z,92.98
2022-08-03T00:07:22.470Z,92.81
2022-08-03T00:08:25.207Z,92.78
2022-08-03T00:09:27.794Z,92.71
2022-08-03T00:10:33.299Z,91.89
2022-08-03T00:11:36.173Z,91.96
2022-08-03T00:12:38.856Z,92.28
2022-08-03T00:13:41.649Z,91.54
2022-08-03T00:14:44.295Z,91.27
2022-08-03T00:15:47.024Z,91.27
2022-08-03T00:16:50.112Z,91.18
2022-08-03T00:17:54.120Z,91.61
2022-08-03T00:18:56.855Z,91.60
2022-08-03T00:19:59.533Z,91.94
2022-08-03T00:21:03.580Z,92.02
2022-08-03T00:22:06.280Z,92.30
2022-08-03T00:23:09.119Z,92.02
2022-08-03T00:24:11.870Z,92.45
2022-08-03T00:25:14.619Z,91.84
2022-08-03T00:26:18.116Z,91.25
2022-08-03T00:27:20.822Z,91.44
2022-08-03T00:28:23.674Z,91.72
2022-08-03T00:29:28.262Z,90.73
2022-08-03T00:30:31.818Z,90.97
2022-08-03T00:31:51.455Z,90.74
2022-08-03T00:32:45.182Z,90.89
2022-08-03T00:33:58.090Z,91.05
2022-08-03T00:34:49.089Z,91.52
2022-08-03T00:35:53.658Z,91.83
2022-08-03T00:36:56.427Z,91.69
2022-08-03T00:37:59.030Z,91.63
2022-08-03T00:39:01.693Z,92.08
2022-08-03T00:40:05.485Z,92.09
2022-08-03T00:41:08.381Z,92.20
2022-08-03T00:42:11.061Z,92.13
2022-08-03T00:43:14.038Z,92.42
2022-08-03T00:44:16.594Z,92.51
2022-08-03T00:45:20.510Z,92.23
2022-08-03T00:46:24.215Z,92.09
2022-08-03T00:47:27.048Z,92.21
2022-08-03T00:48:33.321Z,92.26
2022-08-03T00:49:34.391Z,92.07
2022-08-03T00:50:41.757Z,92.03
2022-08-03T00:51:44.456Z,91.78
2022-08-03T00:52:47.259Z,91.68
2022-08-03T00:53:49.835Z,91.79
2022-08-03T00:54:52.618Z,91.77
2022-08-03T00:55:55.224Z,91.74
2022-08-03T00:56:59.754Z,91.48
2022-08-03T00:58:03.100Z,91.69
2022-08-03T00:59:05.790Z,92.10
2022-08-03T01:00:09.893Z,91.39
2022-08-03T01:01:12.966Z,91.55
2022-08-03T01:03:28.049Z,91.75
2022-08-03T01:04:30.751Z,91.41
2022-08-03T01:06:01.947Z,90.74
2022-08-03T01:08:24.883Z,91.08
2022-08-03T01:09:49.307Z,91.12
2022-08-03T01:10:55.897Z,91.19
2022-08-03T01:14:01.510Z,91.15
2022-08-03T01:14:37.657Z,91.45
2022-08-03T01:16:01.973Z,91.39
2022-08-03T01:17:25.042Z,91.14
2022-08-03T01:20:04.239Z,91.12
2022-08-03T01:21:09.632Z,90.96
2022-08-03T01:22:46.667Z,90.62
2022-08-03T01:23:59.207Z,90.87
2022-08-03T01:25:39.452Z,90.65
2022-08-03T01:26:45.971Z,90.66
2022-08-03T01:29:51.738Z,90.55
2022-08-03T01:30:56.457Z,90.61
2022-08-03T01:32:54.534Z,90.91
2022-08-03T01:34:27.659Z,91.30
2022-08-03T01:35:38.693Z,91.04
2022-08-03T01:38:03.098Z,91.11
2022-08-03T01:39:06.115Z,91.10
2022-08-03T01:40:10.279Z,91.13
2022-08-03T01:41:21.283Z,91.32
2022-08-03T01:42:24.795Z,91.22
2022-08-03T01:43:55.217Z,90.66
2022-08-03T01:44:37.598Z,90.84
2022-08-03T01:45:40.507Z,90.63
2022-08-03T01:46:47.726Z,90.75
2022-08-03T01:47:48.534Z,90.86
2022-08-03T01:48:51.335Z,90.63
2022-08-03T01:49:54.197Z,90.88
2022-08-03T01:50:57.160Z,91.22
2022-08-03T01:52:04.473Z,91.38
2022-08-03T01:53:04.589Z,91.30
2022-08-03T01:54:07.458Z,91.38
2022-08-03T01:55:10.702Z,91.21
2022-08-03T01:57:25.180Z,91.45
2022-08-03T01:58:27.860Z,91.65
2022-08-03T01:59:30.449Z,91.72
2022-08-03T02:00:37.206Z,91.45
2022-08-03T02:02:28.812Z,91.70
2022-08-03T02:02:46.586Z,91.70
2022-08-03T02:04:00.020Z,91.26
2022-08-03T02:04:55.149Z,91.56
2022-08-03T02:06:59.181Z,91.76
2022-08-03T02:07:03.451Z,91.96
2022-08-03T02:08:07.767Z,91.96
2022-08-03T02:09:10.672Z,91.65
2022-08-03T02:10:15.270Z,91.38
2022-08-03T02:11:18.041Z,91.70
2022-08-03T02:12:21.772Z,91.98
2022-08-03T02:13:24.653Z,91.48
2022-08-03T02:14:27.221Z,91.19
2022-08-03T02:15:29.813Z,90.98
2022-08-03T02:16:33.617Z,90.84
2022-08-03T02:18:53.027Z,90.82
2022-08-03T02:19:56.132Z,90.75
2022-08-03T02:21:00.600Z,90.65
2022-08-03T02:22:04.311Z,90.57
2022-08-03T02:23:07.006Z,90.37
2022-08-03T02:24:09.730Z,90.55
2022-08-03T02:25:13.412Z,90.36
2022-08-03T02:26:17.248Z,90.47
2022-08-03T02:27:21.937Z,90.36
2022-08-03T02:29:41.827Z,90.69
2022-08-03T02:30:46.126Z,90.90
2022-08-03T02:31:50.629Z,90.97
2022-08-03T02:32:54.902Z,90.52
2022-08-03T02:33:59.753Z,90.50
2022-08-03T02:35:03.541Z,90.54
2022-08-03T02:36:06.654Z,90.53
2022-08-03T02:38:20.935Z,90.22
2022-08-03T02:39:23.620Z,89.44
2022-08-03T02:40:28.933Z,89.67
2022-08-03T02:42:47.045Z,89.88
2022-08-03T02:44:06.346Z,89.90
2022-08-03T02:44:57.625Z,90.12
2022-08-03T02:46:00.406Z,90.16
2022-08-03T02:47:06.510Z,90.19
2022-08-03T02:48:09.218Z,90.00
2022-08-03T02:49:40.830Z,89.77
2022-08-03T02:50:20.067Z,89.47
2022-08-03T02:51:22.721Z,88.88
2022-08-03T02:52:27.288Z,88.76
2022-08-03T02:53:30.181Z,88.38
2022-08-03T02:54:32.949Z,88.38
2022-08-03T02:55:35.826Z,88.65
2022-08-03T02:56:40.542Z,88.50
2022-08-03T02:57:43.219Z,88.24
2022-08-03T02:58:45.794Z,88.20
2022-08-03T03:00:59.121Z,88.06
2022-08-03T03:02:02.789Z,87.80
2022-08-03T03:03:05.477Z,88.02
2022-08-03T03:04:08.169Z,88.05
2022-08-03T03:05:53.716Z,87.92
2022-08-03T03:06:18.331Z,87.93
2022-08-03T03:07:22.111Z,87.39
2022-08-03T03:08:25.938Z,87.89
2022-08-03T03:09:40.671Z,87.37
2022-08-03T03:10:36.540Z,87.42
2022-08-03T03:11:39.208Z,87.78
2022-08-03T03:12:41.805Z,87.75
2022-08-03T03:13:44.479Z,87.92
2022-08-03T03:14:47.372Z,87.74
2022-08-03T03:15:50.486Z,87.76
2022-08-03T03:16:57.969Z,87.72
2022-08-03T03:17:57.970Z,87.13
2022-08-03T03:19:00.652Z,87.14
2022-08-03T03:20:04.271Z,87.35
2022-08-03T03:21:07.071Z,87.58
2022-08-03T03:22:09.784Z,87.50
2022-08-03T03:23:13.425Z,87.50
2022-08-03T03:24:16.007Z,87.42
2022-08-03T03:25:18.835Z,87.65
2022-08-03T03:26:23.366Z,87.33
2022-08-03T03:27:26.163Z,87.64
2022-08-03T03:28:30.253Z,87.73
2022-08-03T03:29:39.247Z,87.82
2022-08-03T03:30:38.064Z,87.98
2022-08-03T03:31:40.695Z,87.25
2022-08-03T03:32:43.297Z,87.38
2022-08-03T03:33:45.985Z,87.48
2022-08-03T03:34:48.657Z,87.53
2022-08-03T03:35:51.870Z,87.49
2022-08-03T03:36:54.759Z,87.87
2022-08-03T03:37:57.432Z,87.87
2022-08-03T03:39:00.123Z,87.81
2022-08-03T03:40:05.774Z,87.99
2022-08-03T03:41:09.064Z,87.61
2022-08-03T03:42:11.848Z,87.46
2022-08-03T03:43:14.535Z,87.08
2022-08-03T03:44:17.440Z,87.57
2022-08-03T03:45:20.470Z,87.75
2022-08-03T03:46:25.025Z,87.10
2022-08-03T03:47:32.478Z,87.31
2022-08-03T03:48:32.850Z,87.36
2022-08-03T03:49:35.773Z,87.63
2022-08-03T03:50:39.715Z,87.75
2022-08-03T03:51:42.462Z,87.89
2022-08-03T03:52:45.200Z,88.21
2022-08-03T03:53:59.266Z,88.07
2022-08-03T03:55:02.088Z,87.69
2022-08-03T03:56:05.060Z,87.07
2022-08-03T03:57:08.470Z,87.23
2022-08-03T03:58:13.198Z,86.91
2022-08-03T03:59:16.034Z,86.87
2022-08-03T04:00:21.132Z,86.81
2022-08-03T04:01:24.077Z,86.86
2022-08-03T04:02:27.990Z,87.12
2022-08-03T04:03:30.674Z,87.10
2022-08-03T04:04:33.777Z,87.01
2022-08-03T04:05:36.577Z,87.26
2022-08-03T04:08:02.510Z,86.77
2022-08-03T04:09:05.237Z,86.44
2022-08-03T04:11:32.761Z,86.44
2022-08-03T04:12:35.383Z,86.58
2022-08-03T04:13:56.456Z,86.58
2022-08-03T04:15:01.069Z,86.34
2022-08-03T04:16:03.766Z,86.57
2022-08-03T04:17:07.046Z,86.22
2022-08-03T04:18:11.847Z,85.88
2022-08-03T04:19:23.421Z,86.11
2022-08-03T04:20:27.755Z,85.95
2022-08-03T04:21:31.965Z,85.65
2022-08-03T04:22:34.970Z,86.03
2022-08-03T04:23:40.846Z,85.93
2022-08-03T04:24:49.109Z,85.84
2022-08-03T04:25:51.943Z,86.06
2022-08-03T04:26:54.753Z,86.20
2022-08-03T04:27:59.511Z,86.10
2022-08-03T04:29:03.724Z,85.60
2022-08-03T04:30:07.815Z,85.88
2022-08-03T04:31:10.503Z,86.15
2022-08-03T04:32:13.568Z,86.37
2022-08-03T04:33:16.544Z,86.19
2022-08-03T04:34:19.667Z,86.10
2022-08-03T04:36:39.096Z,85.08
2022-08-03T04:37:42.994Z,84.72
2022-08-03T04:40:02.195Z,85.29
2022-08-03T04:41:05.017Z,85.41
2022-08-03T04:42:09.187Z,85.48
2022-08-03T04:43:12.560Z,85.60
2022-08-03T04:47:59.688Z,86.35
2022-08-03T04:49:05.473Z,86.57
2022-08-03T04:50:12.976Z,86.68
2022-08-03T04:51:14.126Z,86.76
2022-08-03T04:52:17.187Z,86.62
2022-08-03T04:54:30.955Z,86.14
2022-08-03T04:55:34.043Z,86.21
2022-08-03T04:56:42.152Z,86.08
2022-08-03T04:57:44.877Z,86.28
2022-08-03T04:58:47.610Z,86.33
2022-08-03T05:00:01.026Z,85.97
2022-08-03T05:00:59.421Z,85.71
2022-08-03T05:02:02.273Z,85.33
2022-08-03T05:03:23.521Z,85.70
2022-08-03T05:04:09.745Z,85.62
2022-08-03T05:05:12.416Z,85.42
2022-08-03T05:06:16.258Z,85.52
2022-08-03T05:07:24.106Z,85.26
2022-08-03T05:08:28.081Z,85.20
2022-08-03T05:09:50.838Z,85.48
2022-08-03T05:10:32.878Z,84.78
2022-08-03T05:11:37.166Z,84.25
2022-08-03T05:12:39.844Z,84.66
2022-08-03T05:13:43.428Z,84.94
2022-08-03T05:14:46.121Z,84.88
2022-08-03T05:15:48.791Z,85.03
2022-08-03T05:16:51.598Z,85.10
2022-08-03T05:17:54.402Z,85.07
2022-08-03T05:18:57.079Z,84.47
2022-08-03T05:20:00.145Z,84.55
2022-08-03T05:21:03.567Z,84.69
2022-08-03T05:22:06.268Z,84.22
2022-08-03T05:23:08.962Z,83.86
2022-08-03T05:24:11.638Z,84.28
2022-08-03T05:25:19.198Z,84.39
2022-08-03T05:26:20.729Z,84.46
2022-08-03T05:27:23.480Z,83.90
2022-08-03T05:28:26.133Z,83.37
2022-08-03T05:29:28.800Z,83.69
2022-08-03T05:30:34.410Z,83.97
2022-08-03T05:31:37.035Z,84.09
2022-08-03T05:32:39.725Z,83.79
2022-08-03T05:33:42.292Z,83.46
2022-08-03T05:34:45.174Z,83.39
2022-08-03T05:36:03.020Z,83.60
2022-08-03T05:36:52.909Z,83.26
2022-08-03T05:37:55.576Z,83.16
2022-08-03T05:39:02.485Z,83.70
2022-08-03T05:40:03.997Z,83.50
2022-08-03T05:41:21.089Z,84.09
2022-08-03T05:42:11.463Z,83.75
2022-08-03T05:44:25.037Z,83.57
2022-08-03T05:45:28.544Z,83.62
2022-08-03T05:46:32.020Z,83.42
2022-08-03T05:47:34.690Z,83.88
2022-08-03T05:48:37.467Z,84.14
2022-08-03T05:49:40.218Z,84.01
2022-08-03T05:50:43.125Z,84.09
2022-08-03T05:51:45.933Z,84.42
2022-08-03T05:53:59.182Z,84.32
2022-08-03T05:55:01.774Z,84.38
2022-08-03T05:56:14.443Z,84.51
2022-08-03T05:57:09.368Z,84.16
2022-08-03T05:58:12.077Z,84.50
2022-08-03T05:59:36.942Z,84.93
2022-08-03T06:00:21.254Z,84.31
2022-08-03T06:01:24.915Z,83.57
2022-08-03T06:02:27.755Z,83.93
2022-08-03T06:03:30.440Z,84.19
2022-08-03T06:04:33.215Z,83.85
2022-08-03T06:05:36.011Z,84.04
2022-08-03T06:06:40.871Z,84.16
2022-08-03T06:07:43.623Z,83.59
2022-08-03T06:08:46.317Z,83.18
2022-08-03T06:10:33.970Z,83.16
2022-08-03T06:10:53.974Z,82.92
2022-08-03T06:11:56.643Z,83.01
2022-08-03T06:12:59.229Z,82.69
2022-08-03T06:15:14.770Z,82.11
2022-08-03T06:16:18.387Z,81.26
2022-08-03T06:17:21.181Z,80.98
2022-08-03T06:18:23.862Z,81.01
2022-08-03T06:19:26.558Z,80.69
2022-08-03T06:20:31.094Z,80.72
2022-08-03T06:21:33.757Z,80.83
2022-08-03T06:22:37.586Z,80.88
2022-08-03T06:23:54.743Z,79.64
2022-08-03T06:24:53.495Z,78.95
2022-08-03T06:25:52.232Z,79.08
2022-08-03T06:26:55.111Z,79.24
2022-08-03T06:27:57.775Z,78.45
2022-08-03T06:29:00.718Z,78.28
2022-08-03T06:30:09.955Z,77.98
2022-08-03T06:31:13.233Z,77.68
2022-08-03T06:32:15.894Z,77.74
2022-08-03T06:33:20.204Z,78.27
2022-08-03T06:34:33.567Z,77.88
2022-08-03T06:35:27.492Z,77.35
2022-08-03T06:36:31.931Z,76.81
2022-08-03T06:37:44.752Z,77.46
2022-08-03T06:38:47.674Z,76.94
2022-08-03T06:39:50.247Z,76.46
2022-08-03T06:40:52.935Z,76.74
2022-08-03T06:41:56.285Z,76.64
2022-08-03T06:43:00.563Z,76.95
2022-08-03T06:44:04.666Z,77.20
2022-08-03T06:45:08.124Z,75.98
2022-08-03T06:46:11.514Z,76.30
2022-08-03T06:47:14.239Z,75.80
2022-08-03T06:48:16.908Z,75.40
2022-08-03T06:49:19.783Z,75.62
2022-08-03T06:52:37.704Z,75.82
2022-08-03T06:53:36.565Z,75.45
2022-08-03T06:54:39.274Z,75.13
2022-08-03T06:55:42.612Z,74.54
2022-08-03T06:56:45.785Z,74.98
2022-08-03T06:57:48.711Z,75.12
2022-08-03T06:58:51.637Z,74.91
2022-08-03T07:00:10.250Z,74.08
2022-08-03T07:00:59.164Z,74.30
2022-08-03T07:02:02.256Z,74.74
2022-08-03T07:03:04.936Z,75.32
2022-08-03T07:04:07.772Z,74.88
2022-08-03T07:05:10.462Z,74.77
2022-08-03T07:06:13.779Z,74.68
2022-08-03T07:07:16.480Z,74.50
2022-08-03T07:08:19.499Z,75.08
2022-08-03T07:09:23.970Z,74.80
2022-08-03T07:10:28.340Z,74.27
2022-08-03T07:11:31.241Z,74.40
2022-08-03T07:12:34.189Z,74.30
2022-08-03T07:13:36.892Z,74.44
2022-08-03T07:14:39.592Z,74.29
2022-08-03T07:15:55.232Z,74.33
2022-08-03T07:16:46.985Z,74.26
2022-08-03T07:17:49.571Z,74.43
2022-08-03T07:18:52.346Z,74.63
2022-08-03T07:19:55.015Z,74.43
2022-08-03T07:20:58.115Z,74.85
2022-08-03T07:22:02.272Z,74.96
2022-08-03T07:23:05.664Z,75.17
2022-08-03T07:24:08.547Z,75.44
2022-08-03T07:25:11.235Z,75.47
2022-08-03T07:26:14.332Z,74.47
2022-08-03T07:27:17.010Z,74.21
2022-08-03T07:28:19.921Z,74.12
2022-08-03T07:29:22.951Z,74.25
2022-08-03T07:30:26.842Z,74.35
2022-08-03T07:31:34.391Z,73.67
2022-08-03T07:32:34.275Z,73.81
2022-08-03T07:33:37.062Z,73.52
2022-08-03T07:34:39.690Z,73.57
2022-08-03T07:35:42.491Z,72.99
2022-08-03T07:36:45.296Z,73.20
2022-08-03T07:37:54.564Z,73.19
2022-08-03T07:38:52.677Z,73.27
2022-08-03T07:39:55.450Z,72.23
2022-08-03T07:40:58.568Z,72.63
2022-08-03T07:42:01.454Z,72.84
2022-08-03T07:43:04.237Z,72.64
2022-08-03T07:44:06.821Z,72.30
2022-08-03T07:45:09.857Z,71.62
2022-08-03T07:46:16.169Z,71.05
2022-08-03T07:47:22.606Z,70.59
2022-08-03T07:48:24.786Z,70.49
2022-08-03T07:49:27.763Z,70.35
2022-08-03T07:50:31.074Z,70.20
2022-08-03T07:51:33.931Z,70.52
2022-08-03T07:52:36.776Z,69.79
2022-08-03T07:53:45.961Z,69.91
2022-08-03T07:54:44.168Z,70.24
2022-08-03T07:55:46.909Z,70.44
2022-08-03T07:56:49.692Z,70.83
2022-08-03T07:59:19.434Z,71.15
2022-08-03T08:00:23.948Z,71.11
2022-08-03T08:01:26.972Z,71.16
2022-08-03T08:02:55.180Z,70.80
2022-08-03T08:03:59.033Z,69.86
2022-08-03T08:05:05.489Z,69.96
2022-08-03T08:06:07.164Z,69.41
2022-08-03T08:07:11.888Z,69.39
2022-08-03T08:08:14.665Z,69.06
2022-08-03T08:09:17.388Z,69.31
2022-08-03T08:10:21.268Z,69.14
2022-08-03T08:11:23.946Z,69.31
2022-08-03T08:12:26.517Z,69.92
2022-08-03T08:13:29.500Z,69.59
2022-08-03T08:14:32.090Z,69.55
2022-08-03T08:15:34.691Z,69.33
2022-08-03T08:16:37.476Z,69.35
2022-08-03T08:17:48.440Z,69.07
2022-08-03T08:18:51.133Z,68.80
2022-08-03T08:19:53.816Z,69.06
2022-08-03T08:20:56.804Z,69.12
2022-08-03T08:22:02.553Z,69.05
2022-08-03T08:23:12.129Z,69.79
2022-08-03T08:24:18.260Z,70.19
2022-08-03T08:25:16.142Z,70.32
2022-08-03T08:26:22.149Z,69.72
2022-08-03T08:27:24.859Z,70.30
2022-08-03T08:28:32.947Z,70.31
2022-08-03T08:29:31.955Z,70.41
2022-08-03T08:30:34.763Z,71.06
2022-08-03T08:31:38.054Z,70.08
2022-08-03T08:32:40.959Z,69.97
2022-08-03T08:34:48.241Z,69.18
2022-08-03T08:35:52.134Z,68.44
2022-08-03T08:36:55.035Z,68.43
2022-08-03T08:37:59.607Z,68.56
2022-08-03T08:39:04.220Z,68.40
2022-08-03T08:40:08.253Z,68.79
2022-08-03T08:41:11.389Z,68.81
2022-08-03T08:42:15.143Z,69.12
2022-08-03T08:43:18.113Z,68.76
2022-08-03T08:44:20.967Z,68.31
2022-08-03T08:45:23.924Z,68.58
2022-08-03T08:46:31.198Z,68.81
2022-08-03T08:48:46.552Z,67.73
2022-08-03T08:51:03.349Z,66.39
2022-08-03T08:53:28.850Z,65.32
2022-08-03T08:54:31.550Z,65.44
2022-08-03T08:56:00.063Z,64.94
2022-08-03T08:56:38.850Z,65.00
2022-08-03T08:57:49.145Z,65.36
2022-08-03T08:58:52.903Z,64.70
2022-08-03T08:59:58.815Z,64.68
2022-08-03T09:01:01.802Z,63.99
2022-08-03T09:02:04.616Z,64.07
2022-08-03T09:03:07.299Z,64.48
2022-08-03T09:04:09.980Z,64.56
2022-08-03T09:05:19.195Z,64.87
2022-08-03T09:06:22.496Z,64.66
2022-08-03T09:07:25.183Z,65.03
2022-08-03T09:08:31.617Z,64.91
2022-08-03T09:10:11.194Z,64.35
2022-08-03T09:10:39.183Z,64.47
2022-08-03T09:11:53.174Z,64.71
2022-08-03T09:12:48.662Z,65.06
2022-08-03T09:13:51.354Z,64.91
2022-08-03T09:15:14.608Z,64.51
2022-08-03T09:17:24.973Z,64.27
2022-08-03T09:18:32.262Z,64.97
2022-08-03T09:19:33.675Z,64.96
2022-08-03T09:20:37.799Z,65.44
2022-08-03T09:21:40.588Z,64.89
2022-08-03T09:23:44.526Z,64.75
2022-08-03T09:24:31.242Z,64.71
2022-08-03T09:25:25.430Z,64.80
2022-08-03T09:26:28.893Z,64.41
2022-08-03T09:27:42.584Z,64.54
2022-08-03T09:29:00.005Z,64.02
2022-08-03T09:29:50.792Z,64.15
2022-08-03T09:30:59.789Z,64.54
2022-08-03T09:32:03.090Z,64.57
2022-08-03T09:33:08.433Z,64.27
2022-08-03T09:34:12.937Z,63.86
2022-08-03T09:35:16.054Z,64.24
2022-08-03T09:36:37.228Z,64.39
2022-08-03T09:38:11.978Z,64.61
2022-08-03T09:38:44.861Z,64.66
2022-08-03T09:39:47.467Z,63.96
2022-08-03T09:40:50.362Z,63.34
2022-08-03T09:42:07.001Z,64.00
2022-08-03T09:43:09.800Z,63.61
2022-08-03T09:44:24.251Z,63.39
2022-08-03T09:45:26.331Z,62.31
2022-08-03T09:46:29.420Z,62.92
2022-08-03T09:47:33.531Z,62.67
2022-08-03T09:48:36.244Z,63.05
2022-08-03T09:49:41.057Z,63.06
2022-08-03T09:52:37.693Z,64.21
2022-08-03T09:53:21.684Z,63.48
2022-08-03T09:54:27.824Z,63.46
2022-08-03T09:56:45.420Z,63.82
2022-08-03T09:57:48.158Z,63.68
2022-08-03T09:58:50.741Z,64.12
2022-08-03T10:00:04.546Z,63.58
2022-08-03T10:02:21.741Z,64.27
2022-08-03T10:03:25.609Z,64.69
2022-08-03T10:04:28.209Z,64.96
2022-08-03T10:05:31.721Z,65.47
2022-08-03T10:06:36.238Z,66.64
2022-08-03T10:07:46.185Z,67.71
2022-08-03T10:09:08.163Z,68.91
2022-08-03T10:10:30.128Z,70.22
2022-08-03T10:11:28.934Z,71.24
2022-08-03T10:12:31.547Z,71.77
2022-08-03T10:13:34.230Z,73.68
2022-08-03T10:14:37.908Z,75.12
2022-08-03T10:16:23.784Z,76.19
2022-08-03T10:16:46.272Z,76.32
2022-08-03T10:17:48.975Z,77.31
2022-08-03T10:18:51.634Z,78.10
2022-08-03T10:19:54.419Z,78.34
2022-08-03T10:21:04.116Z,78.85
2022-08-03T10:22:09.958Z,78.82
2022-08-03T10:23:13.331Z,78.70
2022-08-03T10:24:17.128Z,79.27
2022-08-03T10:25:19.812Z,79.13
2022-08-03T10:26:24.337Z,78.66
2022-08-03T10:27:29.187Z,79.02
2022-08-03T10:28:35.800Z,79.12
2022-08-03T10:29:39.342Z,79.57
2022-08-03T10:30:44.312Z,80.30
2022-08-03T10:31:57.414Z,80.29
2022-08-03T10:32:55.590Z,78.71
2022-08-03T10:33:58.332Z,77.39
2022-08-03T10:35:20.095Z,77.96
2022-08-03T10:36:09.571Z,78.35
2022-08-03T10:37:12.445Z,77.56
2022-08-03T10:38:21.373Z,76.92
2022-08-03T10:39:25.210Z,77.01
2022-08-03T10:41:37.499Z,77.26
2022-08-03T10:42:42.037Z,76.21
2022-08-03T10:45:21.106Z,76.23
2022-08-03T10:46:23.933Z,75.99
2022-08-03T10:47:26.550Z,75.88
2022-08-03T10:48:29.330Z,75.33
2022-08-03T10:49:34.516Z,74.98
2022-08-03T10:50:36.490Z,75.34
2022-08-03T10:51:39.166Z,75.84
2022-08-03T10:52:58.334Z,76.14
2022-08-03T10:54:03.281Z,75.20
2022-08-03T10:55:39.012Z,75.09
2022-08-03T10:56:49.667Z,75.16
2022-08-03T10:57:50.090Z,74.33
2022-08-03T10:58:57.381Z,74.46
2022-08-03T10:59:59.704Z,74.70
2022-08-03T11:01:07.585Z,72.25
2022-08-03T11:02:10.464Z,72.77
2022-08-03T11:03:13.259Z,73.57
2022-08-03T11:04:17.482Z,71.61
2022-08-03T11:05:30.401Z,71.71
2022-08-03T11:06:37.404Z,72.09
2022-08-03T11:07:39.606Z,71.53
2022-08-03T11:08:42.277Z,72.02
2022-08-03T11:09:46.468Z,72.97
2022-08-03T11:10:52.287Z,73.54
2022-08-03T11:11:55.081Z,72.37
2022-08-03T11:13:07.027Z,71.97
2022-08-03T11:14:20.164Z,71.57
2022-08-03T11:16:43.781Z,70.01
2022-08-03T11:17:56.002Z,69.77
2022-08-03T11:18:59.306Z,70.24
2022-08-03T11:20:02.688Z,68.73
2022-08-03T11:21:05.406Z,68.54
2022-08-03T11:22:08.065Z,67.28
2022-08-03T11:23:10.826Z,67.72
2022-08-03T11:24:37.712Z,68.20
2022-08-03T11:27:25.427Z,68.77
2022-08-03T11:28:28.258Z,68.62
2022-08-03T11:29:31.158Z,68.51
2022-08-03T11:30:35.655Z,67.75
2022-08-03T11:31:51.770Z,67.01
2022-08-03T11:32:51.828Z,66.92
2022-08-03T11:34:11.093Z,67.37
2022-08-03T11:35:30.318Z,66.85
2022-08-03T11:37:11.447Z,65.41
2022-08-03T11:38:14.270Z,65.96
2022-08-03T11:39:17.201Z,66.84
2022-08-03T11:40:45.244Z,66.87
2022-08-03T11:41:48.044Z,67.21
2022-08-03T11:42:51.041Z,66.83
2022-08-03T11:43:56.127Z,67.87
2022-08-03T11:44:59.627Z,68.15
2022-08-03T11:46:06.040Z,67.98
2022-08-03T11:47:10.633Z,66.69
2022-08-03T11:48:15.262Z,67.13
2022-08-03T11:49:17.906Z,66.31
2022-08-03T11:50:22.491Z,66.52
2022-08-03T11:51:26.869Z,66.60
2022-08-03T11:52:37.643Z,67.04
2022-08-03T11:53:42.275Z,67.19
2022-08-03T11:54:45.018Z,66.03
2022-08-03T11:55:47.820Z,66.96
2022-08-03T11:56:50.916Z,66.63
2022-08-03T11:59:09.311Z,65.90
2022-08-03T11:59:20.193Z,64.47
2022-08-03T12:00:06.063Z,64.53
2022-08-03T12:01:08.938Z,65.01
2022-08-03T12:02:12.601Z,64.87
2022-08-03T12:03:16.641Z,64.81
2022-08-03T12:04:19.270Z,63.53
2022-08-03T12:05:33.519Z,63.69
2022-08-03T12:06:36.625Z,64.85
2022-08-03T12:08:03.534Z,65.37
2022-08-03T12:08:44.211Z,64.72
2022-08-03T12:10:07.167Z,64.47
2022-08-03T12:11:12.447Z,64.40
2022-08-03T12:12:15.714Z,63.68
2022-08-03T12:14:45.506Z,63.36
2022-08-03T12:14:48.981Z,63.78
2022-08-03T12:15:29.127Z,63.98
2022-08-03T12:16:32.887Z,63.17
2022-08-03T12:18:58.662Z,63.61
2022-08-03T12:20:01.850Z,62.81
2022-08-03T12:21:07.052Z,62.38
2022-08-03T12:22:09.766Z,62.42
2022-08-03T12:23:12.569Z,62.82
2022-08-03T12:24:15.352Z,62.45
2022-08-03T12:25:38.632Z,61.07
2022-08-03T12:26:58.307Z,60.86
2022-08-03T12:27:56.535Z,61.16
2022-08-03T12:28:59.271Z,61.54
2022-08-03T12:30:02.249Z,61.78
2022-08-03T12:32:18.006Z,62.75
2022-08-03T12:33:25.117Z,62.65
2022-08-03T12:34:47.777Z,65.89
2022-08-03T12:37:19.038Z,81.64
2022-08-03T12:38:19.760Z,75.58
2022-08-03T12:39:23.074Z,74.57
2022-08-03T12:40:28.153Z,75.07
2022-08-03T12:42:43.864Z,76.38
2022-08-03T12:43:49.315Z,76.17
2022-08-03T12:44:54.659Z,75.90
2022-08-03T12:46:13.628Z,75.91
2022-08-03T12:47:16.354Z,76.36
2022-08-03T12:48:19.046Z,75.81
2022-08-03T12:49:23.828Z,76.65
2022-08-03T12:50:31.250Z,76.01
2022-08-03T12:51:43.595Z,76.03
2022-08-03T12:52:46.210Z,76.01
2022-08-03T12:53:53.003Z,75.48
2022-08-03T12:54:56.621Z,75.39
2022-08-03T12:57:16.025Z,76.09
2022-08-03T12:59:52.756Z,75.95
2022-08-03T13:00:55.660Z,74.92
2022-08-03T13:01:58.698Z,74.06
2022-08-03T13:03:38.191Z,74.19
2022-08-03T13:04:13.419Z,73.69
2022-08-03T13:05:15.731Z,74.19
2022-08-03T13:07:36.781Z,74.07
2022-08-03T13:08:39.501Z,73.05
2022-08-03T13:09:44.480Z,72.76
2022-08-03T13:10:47.418Z,71.91
2022-08-03T13:12:05.242Z,71.09
2022-08-03T13:13:09.735Z,69.05
2022-08-03T13:14:16.649Z,67.05
2022-08-03T13:15:17.068Z,67.39
2022-08-03T13:16:21.585Z,67.74
2022-08-03T13:17:24.682Z,68.12
2022-08-03T13:18:27.468Z,67.48
2022-08-03T13:19:31.596Z,67.24
2022-08-03T13:20:35.109Z,65.80
2022-08-03T13:21:37.981Z,66.55
2022-08-03T13:22:44.580Z,67.53
2022-08-03T13:23:47.291Z,68.16
2022-08-03T13:24:51.579Z,68.15
2022-08-03T13:25:55.828Z,68.38
2022-08-03T13:26:59.752Z,68.61
2022-08-03T13:28:06.111Z,69.21
2022-08-03T13:29:07.327Z,69.12
2022-08-03T13:30:11.203Z,68.13
2022-08-03T13:32:24.575Z,68.58
2022-08-03T13:33:27.480Z,67.32
2022-08-03T13:34:30.564Z,66.61
2022-08-03T13:35:33.470Z,65.72
2022-08-03T13:37:06.327Z,65.34
2022-08-03T13:37:41.032Z,63.86
2022-08-03T13:38:43.879Z,62.60
2022-08-03T13:39:58.977Z,62.98
2022-08-03T13:40:53.205Z,62.32
2022-08-03T13:41:56.665Z,61.41
2022-08-03T13:42:59.438Z,61.35
2022-08-03T13:44:26.563Z,60.84
2022-08-03T13:45:07.280Z,62.10
2022-08-03T13:46:10.682Z,61.63
2022-08-03T13:47:13.595Z,60.69
2022-08-03T13:48:16.411Z,60.52
2022-08-03T13:49:21.103Z,60.96
2022-08-03T13:50:24.565Z,60.61
2022-08-03T13:51:27.473Z,60.06
2022-08-03T13:52:31.350Z,60.74
2022-08-03T13:53:33.964Z,61.37
2022-08-03T13:54:36.957Z,62.60
2022-08-03T13:55:39.553Z,61.66
2022-08-03T13:56:42.232Z,62.59
2022-08-03T13:58:05.382Z,62.38
2022-08-03T13:58:49.632Z,60.94
2022-08-03T14:01:02.982Z,61.67
2022-08-03T14:02:05.846Z,62.48
2022-08-03T14:03:14.216Z,63.17
2022-08-03T14:04:15.859Z,63.84
2022-08-03T14:05:18.127Z,64.32
2022-08-03T14:06:22.820Z,64.82
2022-08-03T14:07:25.506Z,65.89
2022-08-03T14:08:28.789Z,66.18
2022-08-03T14:09:31.346Z,66.51
2022-08-03T14:10:35.322Z,67.23
2022-08-03T14:12:08.153Z,67.45
2022-08-03T14:13:53.115Z,68.77
2022-08-03T14:14:58.281Z,69.23
2022-08-03T14:16:00.393Z,69.92
2022-08-03T14:17:04.943Z,69.46
2022-08-03T14:18:15.633Z,69.67
2022-08-03T14:19:12.376Z,70.07
